Time;durP1;ratioP1;P1;durP2;ratioP2;P2;SDS_P1;SDS_P2;PMS_P1;PMS_P2;Temp;Humidity;BMP_temperature;BMP_pressure;BME280_temperature;BME280_humidity;BME280_pressure;Samples;Min_cycle;Max_cycle;Signal;HPM_P1;HPM_P2
2022/07/30 00:01:14;;;;;;;7.28;2.08;;;;;;;;;;4967522;28;20114;-62
2022/07/30 00:03:41;;;;;;;6.60;2.20;;;;;;;;;;4966519;28;20057;-62
2022/07/30 00:06:07;;;;;;;5.55;2.20;;;;;;;;;;4967990;28;20057;-61
2022/07/30 00:08:34;;;;;;;8.90;2.67;;;;;;;;;;4966028;28;20867;-61
2022/07/30 00:11:01;;;;;;;6.88;2.10;;;;;;;;;;4966350;28;20064;-61
2022/07/30 00:13:27;;;;;;;4.63;2.08;;;;;;;;;;4965134;28;20034;-61
2022/07/30 00:15:54;;;;;;;6.18;2.20;;;;;;;;;;4966666;28;20069;-61
2022/07/30 00:18:20;;;;;;;8.30;2.60;;;;;;;;;;4936479;28;20432;-61
2022/07/30 00:20:47;;;;;;;7.15;2.35;;;;;;;;;;4968978;28;20051;-61
2022/07/30 00:23:14;;;;;;;5.63;2.20;;;;;;;;;;4965889;28;20050;-61
2022/07/30 00:25:40;;;;;;;4.68;1.98;;;;;;;;;;4965612;28;20038;-61
2022/07/30 00:28:07;;;;;;;5.45;1.90;;;;;;;;;;4968213;28;20043;-61
2022/07/30 00:30:33;;;;;;;5.95;1.90;;;;;;;;;;4966454;28;20050;-61
2022/07/30 00:33:00;;;;;;;8.02;2.00;;;;;;;;;;4965068;28;20050;-61
2022/07/30 00:35:27;;;;;;;7.43;2.17;;;;;;;;;;4965665;28;20736;-60
2022/07/30 00:37:53;;;;;;;4.78;1.88;;;;;;;;;;4966425;28;20072;-61
2022/07/30 00:40:20;;;;;;;42.92;4.68;;;;;;;;;;4966296;28;20524;-61
2022/07/30 00:42:47;;;;;;;34.65;3.45;;;;;;;;;;4965488;28;20031;-61
2022/07/30 00:45:14;;;;;;;26.02;2.85;;;;;;;;;;4966460;28;20288;-60
2022/07/30 00:47:41;;;;;;;22.73;2.70;;;;;;;;;;4962861;28;20108;-61
2022/07/30 00:50:09;;;;;;;9.85;2.20;;;;;;;;;;4966639;28;20472;-61
2022/07/30 00:52:39;;;;;;;8.68;2.15;;;;;;;;;;4965925;28;20820;-61
2022/07/30 00:55:07;;;;;;;13.57;2.53;;;;;;;;;;4965148;28;20043;-61
2022/07/30 00:57:34;;;;;;;5.70;2.38;;;;;;;;;;4946341;28;20042;-60
2022/07/30 01:00:01;;;;;;;7.80;2.50;;;;;;;;;;4964736;28;20066;-61
2022/07/30 01:02:27;;;;;;;8.80;2.65;;;;;;;;;;4963471;28;20042;-60
2022/07/30 01:04:54;;;;;;;10.13;2.90;;;;;;;;;;4967323;28;20054;-61
2022/07/30 01:07:20;;;;;;;6.38;2.50;;;;;;;;;;4966177;28;20042;-61
2022/07/30 01:09:47;;;;;;;8.05;2.80;;;;;;;;;;4965843;28;20107;-60
2022/07/30 01:12:16;;;;;;;8.30;2.58;;;;;;;;;;4967250;28;20043;-61
2022/07/30 01:14:43;;;;;;;6.13;2.22;;;;;;;;;;4949604;28;20053;-61
2022/07/30 01:17:09;;;;;;;4.50;2.05;;;;;;;;;;4950015;28;20380;-62
2022/07/30 01:19:48;;;;;;;5.18;2.20;;;;;;;;;;4966476;28;20073;-61
2022/07/30 01:22:24;;;;;;;4.53;2.08;;;;;;;;;;4966474;28;20440;-61
2022/07/30 01:25:04;;;;;;;5.07;2.20;;;;;;;;;;4966319;28;20050;-61
2022/07/30 01:27:32;;;;;;;4.53;1.98;;;;;;;;;;4950751;28;20034;-61
2022/07/30 01:30:01;;;;;;;6.65;1.83;;;;;;;;;;4966845;28;20046;-62
2022/07/30 01:32:29;;;;;;;4.95;1.92;;;;;;;;;;4968415;28;20039;-61
2022/07/30 01:34:57;;;;;;;4.18;1.95;;;;;;;;;;4970347;28;20821;-62
2022/07/30 01:37:24;;;;;;;5.28;1.50;;;;;;;;;;4969463;28;20043;-61
2022/07/30 01:39:51;;;;;;;5.25;1.80;;;;;;;;;;4971692;28;20047;-60
2022/07/30 01:42:19;;;;;;;5.43;1.80;;;;;;;;;;4969579;28;20043;-62
2022/07/30 01:44:46;;;;;;;3.78;1.80;;;;;;;;;;4969837;28;20513;-62
2022/07/30 01:47:13;;;;;;;4.78;2.05;;;;;;;;;;4971100;28;20107;-61
2022/07/30 01:49:41;;;;;;;4.40;1.70;;;;;;;;;;4970215;28;20073;-61
2022/07/30 01:52:08;;;;;;;5.20;1.80;;;;;;;;;;4971227;28;20538;-61
2022/07/30 01:54:35;;;;;;;4.13;2.00;;;;;;;;;;4970600;28;20114;-61
2022/07/30 01:57:02;;;;;;;4.97;1.77;;;;;;;;;;4971361;28;20043;-61
2022/07/30 01:59:30;;;;;;;5.05;1.50;;;;;;;;;;4970355;28;20038;-61
2022/07/30 02:01:56;;;;;;;3.42;1.52;;;;;;;;;;4969656;28;20484;-61
2022/07/30 02:04:23;;;;;;;3.20;1.30;;;;;;;;;;4970780;28;20563;-61
2022/07/30 02:07:02;;;;;;;4.55;1.60;;;;;;;;;;4940840;28;20459;-61
2022/07/30 02:09:31;;;;;;;3.78;1.90;;;;;;;;;;4971303;28;20415;-60
2022/07/30 02:14:49;;;;;;;3.50;1.42;;;;;;;;;;4970513;28;20514;-62
2022/07/30 02:17:16;;;;;;;;;;;;;;;;;;4973196;28;20045;-63
2022/07/30 02:19:43;;;;;;;5.10;1.63;;;;;;;;;;4972066;28;20385;-63
2022/07/30 02:22:12;;;;;;;3.20;1.30;;;;;;;;;;4972311;28;20718;-64
2022/07/30 02:24:41;;;;;;;2.67;1.13;;;;;;;;;;4969944;28;20059;-64
2022/07/30 02:27:21;;;;;;;3.50;1.60;;;;;;;;;;4957614;28;20376;-63
2022/07/30 02:29:48;;;;;;;5.03;1.50;;;;;;;;;;4969176;28;20043;-63
2022/07/30 02:32:17;;;;;;;4.47;1.65;;;;;;;;;;4970701;28;20077;-64
2022/07/30 02:34:44;;;;;;;3.35;1.55;;;;;;;;;;4967314;28;20031;-65
2022/07/30 02:37:13;;;;;;;4.35;1.90;;;;;;;;;;4971764;28;20775;-64
2022/07/30 02:39:41;;;;;;;3.40;1.70;;;;;;;;;;4966938;28;20047;-59
2022/07/30 02:42:08;;;;;;;3.47;1.55;;;;;;;;;;4967497;28;20038;-63
2022/07/30 02:44:37;;;;;;;4.43;1.58;;;;;;;;;;4968011;28;20522;-63
2022/07/30 02:47:04;;;;;;;4.75;1.42;;;;;;;;;;4952394;28;20039;-64
2022/07/30 02:49:31;;;;;;;3.15;1.30;;;;;;;;;;4967977;28;20238;-64
2022/07/30 02:51:58;;;;;;;3.17;1.20;;;;;;;;;;4968151;28;20065;-62
2022/07/30 02:54:27;;;;;;;5.63;1.60;;;;;;;;;;4967347;28;20110;-62
2022/07/30 02:56:54;;;;;;;3.78;1.50;;;;;;;;;;4968210;28;20096;-64
2022/07/30 02:59:22;;;;;;;3.13;1.40;;;;;;;;;;4965187;28;20065;-63
2022/07/30 03:01:49;;;;;;;3.30;1.45;;;;;;;;;;4966960;28;20396;-60
2022/07/30 03:04:21;;;;;;;3.10;1.42;;;;;;;;;;4968649;28;20161;-64
2022/07/30 03:06:48;;;;;;;3.75;1.65;;;;;;;;;;4967496;28;20039;-63
2022/07/30 03:09:17;;;;;;;3.67;1.50;;;;;;;;;;4968957;28;20100;-64
2022/07/30 03:11:44;;;;;;;7.00;1.52;;;;;;;;;;4966090;28;20185;-63
2022/07/30 03:14:10;;;;;;;5.55;1.85;;;;;;;;;;4968371;28;20080;-66
2022/07/30 03:16:38;;;;;;;5.00;1.83;;;;;;;;;;4967796;28;20058;-64
2022/07/30 03:19:07;;;;;;;3.95;1.83;;;;;;;;;;4952681;28;20125;-61
2022/07/30 03:21:34;;;;;;;3.67;1.50;;;;;;;;;;4964910;28;20158;-63
2022/07/30 03:24:02;;;;;;;3.25;1.33;;;;;;;;;;4967679;28;20470;-60
2022/07/30 03:26:30;;;;;;;3.95;1.42;;;;;;;;;;4969115;28;20034;-62
2022/07/30 03:28:56;;;;;;;4.43;1.65;;;;;;;;;;4967758;28;20097;-62
2022/07/30 03:31:24;;;;;;;4.65;1.90;;;;;;;;;;4967283;28;20042;-62
2022/07/30 03:33:50;;;;;;;4.30;2.05;;;;;;;;;;4965617;28;20054;-61
2022/07/30 03:36:17;;;;;;;5.75;1.98;;;;;;;;;;4966501;28;20046;-62
2022/07/30 03:38:45;;;;;;;4.32;1.88;;;;;;;;;;4965574;28;20038;-62
2022/07/30 03:41:11;;;;;;;4.13;1.80;;;;;;;;;;4968730;28;20747;-63
2022/07/30 03:43:39;;;;;;;6.47;1.83;;;;;;;;;;4965194;28;20054;-62
2022/07/30 03:46:07;;;;;;;4.35;2.08;;;;;;;;;;4968109;28;20046;-63
2022/07/30 03:48:34;;;;;;;4.57;1.60;;;;;;;;;;4967036;28;20189;-63
2022/07/30 03:51:02;;;;;;;3.58;1.50;;;;;;;;;;4966569;28;20062;-62
2022/07/30 03:53:29;;;;;;;3.05;1.35;;;;;;;;;;4948843;28;20616;-62
2022/07/30 03:55:56;;;;;;;4.45;1.60;;;;;;;;;;4967929;28;20109;-62
2022/07/30 03:58:22;;;;;;;3.83;1.60;;;;;;;;;;4967024;28;20507;-62
2022/07/30 04:00:50;;;;;;;2.90;1.30;;;;;;;;;;4966612;28;20130;-61
2022/07/30 04:03:30;;;;;;;3.75;1.40;;;;;;;;;;4965801;28;20058;-62
2022/07/30 04:05:57;;;;;;;3.35;1.50;;;;;;;;;;4950347;28;20042;-61
2022/07/30 04:08:23;;;;;;;3.55;1.60;;;;;;;;;;4968333;28;20411;-61
2022/07/30 04:10:50;;;;;;;3.10;1.42;;;;;;;;;;4967506;28;20048;-61
2022/07/30 04:13:17;;;;;;;3.67;1.70;;;;;;;;;;4965666;28;20118;-61
2022/07/30 04:16:02;;;;;;;3.95;1.50;;;;;;;;;;4967725;28;20137;-62
2022/07/30 04:18:31;;;;;;;3.33;1.35;;;;;;;;;;4964896;28;20043;-62
2022/07/30 04:20:58;;;;;;;3.30;1.50;;;;;;;;;;4966229;28;20043;-61
2022/07/30 04:23:24;;;;;;;4.05;1.75;;;;;;;;;;4964658;28;20522;-61
2022/07/30 04:25:51;;;;;;;4.05;1.60;;;;;;;;;;4966205;28;20401;-61
2022/07/30 04:28:19;;;;;;;3.47;1.52;;;;;;;;;;4967926;28;20039;-61
2022/07/30 04:30:46;;;;;;;3.67;1.67;;;;;;;;;;4966080;28;20033;-61
2022/07/30 04:33:14;;;;;;;5.32;1.75;;;;;;;;;;4965349;28;20035;-60
2022/07/30 04:35:41;;;;;;;5.72;2.00;;;;;;;;;;4964984;28;20042;-61
2022/07/30 04:38:09;;;;;;;4.38;2.15;;;;;;;;;;4965878;28;20803;-61
2022/07/30 04:40:35;;;;;;;5.03;2.40;;;;;;;;;;4965267;28;20838;-61
2022/07/30 04:43:02;;;;;;;4.53;2.30;;;;;;;;;;4965711;28;20463;-61
2022/07/30 04:45:29;;;;;;;4.95;2.45;;;;;;;;;;4966453;28;20159;-60
2022/07/30 04:47:55;;;;;;;5.18;2.53;;;;;;;;;;4968832;28;20561;-60
2022/07/30 04:50:24;;;;;;;6.38;2.55;;;;;;;;;;4966511;28;20376;-61
2022/07/30 04:52:52;;;;;;;5.10;2.53;;;;;;;;;;4968638;28;20043;-61
2022/07/30 04:55:19;;;;;;;7.15;2.22;;;;;;;;;;4967789;28;20058;-61
2022/07/30 04:57:46;;;;;;;6.07;2.42;;;;;;;;;;4967383;28;20070;-60
2022/07/30 05:00:13;;;;;;;4.97;2.70;;;;;;;;;;4966699;28;20070;-59
2022/07/30 05:02:40;;;;;;;6.05;2.83;;;;;;;;;;4966560;28;20046;-60
2022/07/30 05:05:08;;;;;;;5.07;2.88;;;;;;;;;;4970113;28;20496;-60
2022/07/30 05:07:36;;;;;;;4.65;2.67;;;;;;;;;;4969579;28;20484;-60
2022/07/30 05:10:02;;;;;;;5.20;2.80;;;;;;;;;;4969691;28;20042;-61
2022/07/30 05:12:38;;;;;;;5.88;3.08;;;;;;;;;;4969133;28;20070;-61
2022/07/30 05:15:06;;;;;;;6.43;2.95;;;;;;;;;;4971994;28;20062;-60
2022/07/30 05:17:33;;;;;;;4.78;2.55;;;;;;;;;;4970231;28;20965;-60
2022/07/30 05:20:00;;;;;;;4.10;2.85;;;;;;;;;;4970900;28;20096;-60
2022/07/30 05:22:29;;;;;;;6.65;3.63;;;;;;;;;;4952315;28;20046;-62
2022/07/30 05:24:57;;;;;;;5.05;3.17;;;;;;;;;;4972742;28;20051;-60
2022/07/30 05:27:24;;;;;;;5.80;3.00;;;;;;;;;;4969518;28;20838;-61
2022/07/30 05:29:51;;;;;;;4.85;3.05;;;;;;;;;;4973889;28;20380;-60
2022/07/30 05:32:17;;;;;;;5.38;3.30;;;;;;;;;;4972142;28;20042;-61
2022/07/30 05:34:44;;;;;;;5.60;3.45;;;;;;;;;;4971846;28;20043;-60
2022/07/30 05:37:10;;;;;;;6.38;3.40;;;;;;;;;;4954451;28;20106;-61
2022/07/30 05:39:37;;;;;;;6.63;3.58;;;;;;;;;;4969933;28;20046;-61
2022/07/30 05:42:04;;;;;;;6.03;3.38;;;;;;;;;;4967627;28;20031;-61
2022/07/30 05:44:30;;;;;;;6.20;3.42;;;;;;;;;;4958478;28;20562;-60
2022/07/30 05:46:57;;;;;;;6.97;3.38;;;;;;;;;;4951431;28;20155;-60
2022/07/30 05:49:23;;;;;;;7.82;3.65;;;;;;;;;;4969290;28;20043;-61
2022/07/30 05:51:50;;;;;;;5.75;3.38;;;;;;;;;;4968847;28;20050;-61
2022/07/30 05:54:16;;;;;;;5.50;3.65;;;;;;;;;;4969263;28;20130;-60
2022/07/30 05:56:43;;;;;;;5.28;3.28;;;;;;;;;;4965252;28;20105;-61
2022/07/30 05:59:10;;;;;;;5.95;3.35;;;;;;;;;;4968633;28;20049;-60
2022/07/30 06:01:36;;;;;;;7.25;3.42;;;;;;;;;;4968197;28;20069;-60
2022/07/30 06:04:03;;;;;;;6.75;3.58;;;;;;;;;;4950772;28;20046;-61
2022/07/30 06:06:29;;;;;;;5.97;3.60;;;;;;;;;;4967415;28;20042;-60
2022/07/30 06:08:56;;;;;;;5.78;3.35;;;;;;;;;;4969036;28;20058;-60
2022/07/30 06:11:22;;;;;;;6.88;3.67;;;;;;;;;;4968361;28;20043;-60
2022/07/30 06:13:49;;;;;;;6.40;3.38;;;;;;;;;;4968924;28;20039;-60
2022/07/30 06:16:16;;;;;;;6.20;3.10;;;;;;;;;;4970684;28;20049;-61
2022/07/30 06:18:42;;;;;;;5.82;3.30;;;;;;;;;;4950668;28;20062;-61
2022/07/30 06:21:09;;;;;;;5.85;3.72;;;;;;;;;;4968413;28;20053;-60
2022/07/30 06:23:35;;;;;;;7.63;3.25;;;;;;;;;;4968193;28;20164;-59
2022/07/30 06:26:02;;;;;;;5.93;3.50;;;;;;;;;;4967475;28;20049;-60
2022/07/30 06:28:29;;;;;;;6.25;3.45;;;;;;;;;;4968715;28;20039;-60
2022/07/30 06:30:56;;;;;;;6.90;3.40;;;;;;;;;;4968463;28;20049;-59
2022/07/30 06:33:22;;;;;;;8.48;3.22;;;;;;;;;;4966004;28;20609;-60
2022/07/30 06:35:49;;;;;;;5.25;3.17;;;;;;;;;;4969975;28;20047;-60
2022/07/30 06:38:16;;;;;;;4.78;3.20;;;;;;;;;;4968978;28;20098;-60
2022/07/30 06:40:42;;;;;;;4.88;2.97;;;;;;;;;;4967482;28;20050;-60
2022/07/30 06:43:09;;;;;;;5.63;3.03;;;;;;;;;;4967350;28;20053;-60
2022/07/30 06:45:35;;;;;;;5.25;3.25;;;;;;;;;;4967892;28;20105;-59
2022/07/30 06:48:02;;;;;;;6.00;3.10;;;;;;;;;;4950487;28;20415;-59
2022/07/30 06:50:29;;;;;;;6.82;3.40;;;;;;;;;;4967746;28;20140;-59
2022/07/30 06:52:55;;;;;;;6.35;3.42;;;;;;;;;;4966669;28;20038;-59
2022/07/30 06:55:22;;;;;;;6.35;3.45;;;;;;;;;;4967571;28;20072;-58
2022/07/30 06:57:49;;;;;;;6.63;2.92;;;;;;;;;;4968582;28;20047;-60
2022/07/30 07:00:16;;;;;;;5.40;3.40;;;;;;;;;;4967182;28;20054;-60
2022/07/30 07:02:43;;;;;;;4.90;3.22;;;;;;;;;;4967548;28;20050;-60
2022/07/30 07:05:10;;;;;;;5.40;3.20;;;;;;;;;;4969249;28;20508;-59
2022/07/30 07:07:37;;;;;;;5.78;3.33;;;;;;;;;;4966456;28;20806;-60
2022/07/30 07:10:04;;;;;;;6.70;3.15;;;;;;;;;;4968575;28;20326;-59
2022/07/30 07:12:30;;;;;;;4.88;3.15;;;;;;;;;;4965737;28;20038;-59
2022/07/30 07:14:57;;;;;;;5.72;3.20;;;;;;;;;;4967767;28;20034;-60
2022/07/30 07:17:23;;;;;;;5.35;3.30;;;;;;;;;;4966639;28;20034;-60
2022/07/30 07:19:50;;;;;;;5.82;3.20;;;;;;;;;;4967940;28;20053;-60
2022/07/30 07:22:16;;;;;;;5.40;3.00;;;;;;;;;;4965973;28;20126;-60
2022/07/30 07:24:43;;;;;;;5.57;3.28;;;;;;;;;;4967367;28;20525;-61
2022/07/30 07:27:09;;;;;;;7.32;3.45;;;;;;;;;;4967416;28;20061;-62
2022/07/30 07:29:36;;;;;;;6.03;3.10;;;;;;;;;;4966341;28;20930;-60
2022/07/30 07:32:03;;;;;;;5.30;3.22;;;;;;;;;;4966523;28;20038;-61
2022/07/30 07:34:29;;;;;;;7.97;3.38;;;;;;;;;;4966496;28;20051;-61
2022/07/30 07:36:56;;;;;;;4.97;2.85;;;;;;;;;;4967766;28;20046;-59
2022/07/30 07:39:22;;;;;;;5.28;3.00;;;;;;;;;;4967216;28;20448;-60
2022/07/30 07:41:49;;;;;;;5.13;3.10;;;;;;;;;;4966965;28;20035;-61
2022/07/30 07:44:15;;;;;;;5.93;3.08;;;;;;;;;;4969342;28;20062;-60
2022/07/30 07:46:42;;;;;;;4.78;2.97;;;;;;;;;;4966943;28;20035;-60
2022/07/30 07:49:09;;;;;;;5.05;2.90;;;;;;;;;;4967625;28;20864;-60
2022/07/30 07:51:35;;;;;;;4.97;3.20;;;;;;;;;;4966849;28;20042;-60
2022/07/30 07:54:02;;;;;;;5.30;2.90;;;;;;;;;;4966504;28;20038;-60
2022/07/30 07:56:28;;;;;;;5.72;3.10;;;;;;;;;;4965949;28;20042;-60
2022/07/30 07:58:56;;;;;;;4.63;2.80;;;;;;;;;;4968292;28;20034;-60
2022/07/30 08:01:23;;;;;;;5.20;3.28;;;;;;;;;;4965231;28;20039;-60
2022/07/30 08:03:49;;;;;;;5.28;3.63;;;;;;;;;;4966636;28;21005;-61
2022/07/30 08:06:16;;;;;;;5.25;3.20;;;;;;;;;;4968173;28;20045;-60
2022/07/30 08:08:42;;;;;;;5.93;3.40;;;;;;;;;;4966438;28;20561;-61
2022/07/30 08:11:09;;;;;;;5.88;3.40;;;;;;;;;;4965493;28;20041;-60
2022/07/30 08:13:35;;;;;;;5.35;3.30;;;;;;;;;;4965468;28;20039;-61
2022/07/30 08:16:02;;;;;;;5.70;3.50;;;;;;;;;;4965975;28;20174;-60
2022/07/30 08:18:29;;;;;;;6.20;3.35;;;;;;;;;;4967059;28;20943;-60
2022/07/30 08:20:55;;;;;;;5.82;3.30;;;;;;;;;;4965555;28;20039;-60
2022/07/30 08:23:23;;;;;;;7.47;3.53;;;;;;;;;;4965326;28;20047;-63
2022/07/30 08:25:49;;;;;;;6.20;3.35;;;;;;;;;;4965225;28;20043;-61
2022/07/30 08:28:16;;;;;;;5.40;3.17;;;;;;;;;;4966779;28;20041;-61
2022/07/30 08:30:43;;;;;;;5.30;3.40;;;;;;;;;;4965714;28;20053;-61
2022/07/30 08:33:09;;;;;;;5.97;3.95;;;;;;;;;;4965500;28;20031;-62
2022/07/30 08:35:36;;;;;;;5.13;3.47;;;;;;;;;;4963088;28;20046;-60
2022/07/30 08:38:03;;;;;;;6.05;3.70;;;;;;;;;;4965516;28;20058;-61
2022/07/30 08:40:33;;;;;;;5.57;3.47;;;;;;;;;;4961613;28;20042;-63
2022/07/30 08:43:00;;;;;;;7.63;3.60;;;;;;;;;;4966404;28;20034;-61
2022/07/30 08:45:27;;;;;;;6.45;3.70;;;;;;;;;;4967207;28;20043;-61
2022/07/30 08:47:54;;;;;;;5.15;3.53;;;;;;;;;;4970387;28;20042;-62
2022/07/30 08:50:20;;;;;;;6.50;3.85;;;;;;;;;;4969568;28;20042;-63
2022/07/30 08:52:48;;;;;;;7.32;3.38;;;;;;;;;;4968847;28;20049;-62
2022/07/30 08:55:15;;;;;;;5.95;3.72;;;;;;;;;;4945895;28;20054;-61
2022/07/30 08:57:42;;;;;;;5.93;3.40;;;;;;;;;;4947424;28;20046;-61
2022/07/30 09:00:09;;;;;;;5.90;3.88;;;;;;;;;;4948174;28;20042;-61
2022/07/30 09:02:36;;;;;;;6.88;3.67;;;;;;;;;;4947076;28;20089;-61
2022/07/30 09:05:02;;;;;;;5.78;3.72;;;;;;;;;;4945382;28;20510;-60
2022/07/30 09:07:29;;;;;;;6.72;3.80;;;;;;;;;;4946925;28;20149;-60
2022/07/30 09:09:57;;;;;;;6.18;3.65;;;;;;;;;;4947054;28;20046;-61
2022/07/30 09:12:43;;;;;;;6.45;3.55;;;;;;;;;;4946448;28;20047;-61
2022/07/30 09:15:14;;;;;;;6.13;3.53;;;;;;;;;;4947965;28;20054;-61
2022/07/30 09:17:48;;;;;;;6.28;3.42;;;;;;;;;;4946849;28;20122;-61
2022/07/30 09:20:15;;;;;;;6.35;3.35;;;;;;;;;;4947920;28;20527;-61
2022/07/30 09:22:42;;;;;;;6.55;3.55;;;;;;;;;;4945755;28;20046;-60
2022/07/30 09:25:09;;;;;;;7.22;3.60;;;;;;;;;;4946899;28;20082;-61
2022/07/30 09:27:46;;;;;;;6.20;3.15;;;;;;;;;;4946226;28;20072;-61
2022/07/30 09:30:12;;;;;;;5.15;3.10;;;;;;;;;;4946756;28;20404;-61
2022/07/30 09:32:52;;;;;;;6.82;3.40;;;;;;;;;;4945486;28;20066;-61
2022/07/30 09:35:19;;;;;;;4.85;2.88;;;;;;;;;;4946568;28;20047;-61
2022/07/30 09:37:46;;;;;;;4.78;3.05;;;;;;;;;;4948499;28;20076;-61
2022/07/30 09:40:17;;;;;;;5.13;2.97;;;;;;;;;;4947753;28;20035;-61
2022/07/30 09:42:44;;;;;;;5.13;2.60;;;;;;;;;;4946594;28;20118;-61
2022/07/30 09:45:12;;;;;;;9.52;3.25;;;;;;;;;;4947671;28;20039;-61
2022/07/30 09:47:40;;;;;;;5.65;3.00;;;;;;;;;;4945951;28;20043;-60
2022/07/30 09:50:11;;;;;;;4.90;2.92;;;;;;;;;;4947159;28;20679;-59
2022/07/30 09:52:39;;;;;;;4.97;2.92;;;;;;;;;;4949182;28;20039;-60
2022/07/30 09:55:06;;;;;;;4.75;2.90;;;;;;;;;;4967432;28;20061;-60
2022/07/30 09:57:33;;;;;;;4.72;2.45;;;;;;;;;;4951288;28;20043;-62
2022/07/30 10:00:16;;;;;;;5.07;2.90;;;;;;;;;;4971471;28;20045;-62
2022/07/30 10:02:43;;;;;;;4.60;2.75;;;;;;;;;;4969357;28;20117;-60
2022/07/30 10:05:13;;;;;;;4.82;2.95;;;;;;;;;;4969033;28;20046;-60
2022/07/30 10:07:39;;;;;;;7.22;3.30;;;;;;;;;;4970844;28;20577;-60
2022/07/30 10:10:06;;;;;;;4.70;2.92;;;;;;;;;;4971213;28;20041;-61
2022/07/30 10:12:33;;;;;;;8.90;2.90;;;;;;;;;;4968940;28;20047;-61
2022/07/30 10:15:00;;;;;;;5.03;2.72;;;;;;;;;;4967747;28;20524;-60
2022/07/30 10:17:27;;;;;;;6.05;3.40;;;;;;;;;;4968950;28;20042;-60
2022/07/30 10:19:54;;;;;;;4.38;2.47;;;;;;;;;;4970756;28;20121;-61
2022/07/30 10:22:21;;;;;;;5.75;2.65;;;;;;;;;;4968872;28;20039;-61
2022/07/30 10:24:48;;;;;;;5.72;2.88;;;;;;;;;;4969526;28;20431;-61
2022/07/30 10:27:14;;;;;;;4.20;2.53;;;;;;;;;;4968860;28;21044;-63
2022/07/30 10:29:42;;;;;;;4.78;2.55;;;;;;;;;;4969620;28;20050;-62
2022/07/30 10:32:09;;;;;;;4.10;2.60;;;;;;;;;;4970284;28;20062;-62
2022/07/30 10:34:35;;;;;;;4.45;2.90;;;;;;;;;;4967593;28;20700;-61
2022/07/30 10:37:04;;;;;;;4.82;2.53;;;;;;;;;;4969539;28;20038;-62
2022/07/30 10:39:45;;;;;;;5.35;2.88;;;;;;;;;;4970361;28;20043;-62
2022/07/30 10:42:27;;;;;;;6.95;2.50;;;;;;;;;;4968785;28;20047;-62
2022/07/30 10:45:12;;;;;;;5.85;2.58;;;;;;;;;;4968158;28;20133;-61
2022/07/30 10:47:39;;;;;;;6.53;2.70;;;;;;;;;;4968302;28;20495;-61
2022/07/30 10:50:11;;;;;;;5.75;2.70;;;;;;;;;;4969463;28;20490;-61
2022/07/30 10:52:44;;;;;;;5.25;3.13;;;;;;;;;;4966111;28;20050;-61
2022/07/30 10:55:14;;;;;;;4.85;2.58;;;;;;;;;;4952551;28;20051;-61
2022/07/30 10:58:07;;;;;;;4.78;2.42;;;;;;;;;;4949483;28;20053;-61
2022/07/30 11:00:36;;;;;;;4.95;2.60;;;;;;;;;;4947022;28;20043;-61
2022/07/30 11:03:29;;;;;;;4.55;2.80;;;;;;;;;;4948789;28;20031;-62
2022/07/30 11:06:14;;;;;;;4.40;2.50;;;;;;;;;;4946975;28;20066;-62
2022/07/30 11:08:41;;;;;;;4.28;2.40;;;;;;;;;;4950155;28;21081;-62
2022/07/30 11:11:23;;;;;;;4.88;2.83;;;;;;;;;;4950161;28;20122;-61
2022/07/30 11:13:56;;;;;;;4.88;2.45;;;;;;;;;;4948352;28;20486;-62
2022/07/30 11:16:24;;;;;;;4.00;2.30;;;;;;;;;;4949149;28;20042;-62
2022/07/30 11:19:06;;;;;;;6.00;2.50;;;;;;;;;;4948946;28;20035;-62
2022/07/30 11:21:33;;;;;;;5.10;2.58;;;;;;;;;;4946978;28;20062;-60
2022/07/30 11:24:00;;;;;;;161.57;14.00;;;;;;;;;;4948759;28;20051;-61
2022/07/30 11:26:40;;;;;;;4.82;2.50;;;;;;;;;;4949604;28;20040;-62
2022/07/30 11:29:07;;;;;;;6.72;2.63;;;;;;;;;;4948761;28;20047;-61
2022/07/30 11:31:35;;;;;;;5.22;2.67;;;;;;;;;;4948303;28;20042;-62
2022/07/30 11:34:19;;;;;;;5.30;2.88;;;;;;;;;;4948894;28;20141;-63
2022/07/30 11:37:04;;;;;;;5.68;2.88;;;;;;;;;;4950475;28;20118;-63
2022/07/30 11:39:49;;;;;;;7.28;2.88;;;;;;;;;;4949378;28;20050;-62
2022/07/30 11:42:33;;;;;;;5.00;2.92;;;;;;;;;;4948814;28;20031;-62
2022/07/30 11:45:15;;;;;;;5.65;3.03;;;;;;;;;;4947923;28;20129;-62
2022/07/30 11:47:49;;;;;;;5.60;3.08;;;;;;;;;;4945999;28;20118;-62
2022/07/30 11:50:19;;;;;;;6.00;3.30;;;;;;;;;;4949305;28;20130;-62
2022/07/30 11:52:49;;;;;;;5.30;3.22;;;;;;;;;;4948837;28;20761;-62
2022/07/30 11:55:29;;;;;;;5.95;3.58;;;;;;;;;;4966140;28;20089;-62
2022/07/30 11:57:57;;;;;;;5.03;3.33;;;;;;;;;;4968410;28;20558;-62
2022/07/30 12:00:23;;;;;;;5.03;2.95;;;;;;;;;;4967541;28;20031;-62
2022/07/30 12:02:50;;;;;;;5.82;3.03;;;;;;;;;;4969394;28;20407;-62
2022/07/30 12:05:24;;;;;;;5.90;3.40;;;;;;;;;;4967547;28;20106;-62
2022/07/30 12:07:50;;;;;;;5.82;3.08;;;;;;;;;;4966642;28;20642;-62
2022/07/30 12:10:18;;;;;;;6.82;3.38;;;;;;;;;;4935134;28;20062;-62
2022/07/30 12:12:45;;;;;;;5.07;3.10;;;;;;;;;;4967088;28;20046;-63
2022/07/30 12:15:27;;;;;;;8.95;3.58;;;;;;;;;;4967027;28;20035;-63
2022/07/30 12:17:54;;;;;;;9.18;3.47;;;;;;;;;;4965940;28;20039;-62
2022/07/30 12:20:21;;;;;;;7.20;3.10;;;;;;;;;;4971607;28;20046;-62
2022/07/30 12:22:47;;;;;;;7.05;3.67;;;;;;;;;;4969148;28;20058;-62
2022/07/30 12:25:14;;;;;;;9.15;3.42;;;;;;;;;;4969423;28;20068;-62
2022/07/30 12:27:45;;;;;;;6.22;3.47;;;;;;;;;;4970361;28;20124;-62
2022/07/30 12:30:12;;;;;;;5.93;3.25;;;;;;;;;;4968001;28;20046;-62
2022/07/30 12:32:38;;;;;;;6.05;3.03;;;;;;;;;;4965121;28;20123;-62
2022/07/30 12:35:05;;;;;;;6.15;3.22;;;;;;;;;;4965838;28;20035;-62
2022/07/30 12:37:32;;;;;;;7.53;3.40;;;;;;;;;;4966364;28;20034;-62
2022/07/30 12:40:05;;;;;;;5.13;3.35;;;;;;;;;;4938917;28;20927;-62
2022/07/30 12:42:32;;;;;;;7.28;3.50;;;;;;;;;;4966326;28;20073;-62
2022/07/30 12:44:58;;;;;;;6.43;3.38;;;;;;;;;;4965962;28;20058;-62
2022/07/30 12:47:26;;;;;;;5.45;3.45;;;;;;;;;;4965831;28;20073;-62
2022/07/30 12:49:53;;;;;;;5.72;3.67;;;;;;;;;;4967000;28;20042;-62
2022/07/30 12:52:22;;;;;;;5.95;3.42;;;;;;;;;;4965974;28;20089;-62
2022/07/30 12:55:00;;;;;;;5.57;3.13;;;;;;;;;;4963919;28;20054;-62
2022/07/30 12:57:27;;;;;;;5.47;3.25;;;;;;;;;;4965477;28;20043;-62
2022/07/30 13:00:06;;;;;;;5.05;3.05;;;;;;;;;;4967580;28;20082;-62
2022/07/30 13:02:35;;;;;;;6.10;3.33;;;;;;;;;;4965918;28;20085;-62
2022/07/30 13:05:02;;;;;;;8.13;3.60;;;;;;;;;;4967833;28;20181;-62
2022/07/30 13:07:30;;;;;;;6.90;3.67;;;;;;;;;;4964733;28;20038;-62
2022/07/30 13:10:10;;;;;;;6.68;3.25;;;;;;;;;;4966477;28;20129;-62
2022/07/30 13:12:37;;;;;;;5.90;2.95;;;;;;;;;;4965240;28;20042;-62
2022/07/30 13:15:06;;;;;;;4.88;3.10;;;;;;;;;;4947704;28;20060;-62
2022/07/30 13:17:33;;;;;;;7.95;3.10;;;;;;;;;;4949188;28;20408;-62
2022/07/30 13:19:59;;;;;;;6.05;3.00;;;;;;;;;;4967333;28;20046;-62
2022/07/30 13:22:26;;;;;;;5.63;3.67;;;;;;;;;;4966149;28;20051;-63
2022/07/30 13:24:53;;;;;;;5.63;3.28;;;;;;;;;;4965520;28;20050;-62
2022/07/30 13:27:19;;;;;;;5.70;3.50;;;;;;;;;;4970379;28;20038;-62
2022/07/30 13:29:46;;;;;;;4.88;2.90;;;;;;;;;;4971603;28;20380;-63
2022/07/30 13:32:12;;;;;;;8.00;3.63;;;;;;;;;;4970694;28;20839;-63
2022/07/30 13:34:40;;;;;;;4.65;3.03;;;;;;;;;;4952716;28;20108;-62
2022/07/30 13:37:07;;;;;;;5.55;3.28;;;;;;;;;;4972254;28;20043;-62
2022/07/30 13:39:34;;;;;;;5.03;3.15;;;;;;;;;;4969144;28;20051;-62
2022/07/30 13:42:01;;;;;;;5.90;3.17;;;;;;;;;;4942176;28;20100;-63
2022/07/30 13:44:28;;;;;;;4.85;3.03;;;;;;;;;;4970118;28;20079;-63
2022/07/30 13:46:55;;;;;;;5.38;3.15;;;;;;;;;;4971127;28;20139;-63
2022/07/30 13:49:21;;;;;;;5.90;3.35;;;;;;;;;;4970631;28;20031;-63
2022/07/30 13:51:48;;;;;;;4.75;2.88;;;;;;;;;;4971220;28;20035;-62
2022/07/30 13:54:14;;;;;;;4.90;3.05;;;;;;;;;;4972019;28;20435;-63
2022/07/30 13:56:41;;;;;;;4.63;2.83;;;;;;;;;;4943722;28;21230;-63
2022/07/30 13:59:08;;;;;;;5.18;3.05;;;;;;;;;;4972419;28;20042;-63
2022/07/30 14:01:35;;;;;;;4.65;3.08;;;;;;;;;;4972351;28;20047;-62
2022/07/30 14:04:02;;;;;;;4.68;2.80;;;;;;;;;;4969363;28;20112;-62
2022/07/30 14:06:28;;;;;;;8.90;2.97;;;;;;;;;;4969452;28;20043;-62
2022/07/30 14:08:55;;;;;;;6.50;2.72;;;;;;;;;;4971003;28;20041;-61
2022/07/30 14:11:22;;;;;;;4.68;2.83;;;;;;;;;;4970211;28;20051;-62
2022/07/30 14:13:48;;;;;;;4.78;2.90;;;;;;;;;;4969603;28;20084;-63
2022/07/30 14:16:15;;;;;;;5.50;3.28;;;;;;;;;;4968661;28;20047;-62
2022/07/30 14:18:42;;;;;;;6.88;3.28;;;;;;;;;;4970080;28;20038;-63
2022/07/30 14:21:08;;;;;;;5.15;2.85;;;;;;;;;;4970916;28;20801;-60
2022/07/30 14:23:35;;;;;;;5.82;3.00;;;;;;;;;;4972723;28;20051;-61
2022/07/30 14:26:02;;;;;;;6.13;3.33;;;;;;;;;;4970628;28;20043;-60
2022/07/30 14:28:29;;;;;;;6.68;2.97;;;;;;;;;;4969850;28;20035;-60
2022/07/30 14:30:55;;;;;;;8.77;3.08;;;;;;;;;;4969541;28;20039;-61
2022/07/30 14:33:22;;;;;;;5.55;3.20;;;;;;;;;;4968088;28;20109;-63
2022/07/30 14:35:48;;;;;;;5.80;2.67;;;;;;;;;;4971014;28;20050;-61
2022/07/30 14:38:15;;;;;;;6.50;3.70;;;;;;;;;;4972382;28;20050;-61
2022/07/30 14:40:42;;;;;;;4.60;2.92;;;;;;;;;;4970276;28;20096;-61
2022/07/30 14:43:08;;;;;;;6.50;3.38;;;;;;;;;;4972991;28;20064;-60
2022/07/30 14:45:35;;;;;;;6.10;3.10;;;;;;;;;;4941009;28;20055;-61
2022/07/30 14:48:02;;;;;;;5.35;3.22;;;;;;;;;;4970924;28;20097;-62
2022/07/30 14:50:28;;;;;;;4.95;3.08;;;;;;;;;;4971933;28;20050;-62
2022/07/30 14:52:55;;;;;;;8.70;3.38;;;;;;;;;;4952146;28;20133;-60